KCON

Concord Municipal Airport

Concord, New Hampshire, USA
KCON 182320Z 1900/1924 29003KT P6SM FEW030 OVC050 FM190200 31003KT P6SM SCT250 FM191200 33005KT P6SM OVC120
Issued Valid From Valid To
Jan-18 @ 23:20 UTC
(3 hours ago)
Jan-19 @ 00:00 UTC
(2 hours ago)
Jan-20 @ 00:00 UTC
(in 22 hours)
Expired Click to View Jan-19 @ 00:00 to Jan-19 @ 02:00
KCON 182320Z 1900/1924 29003KT P6SM FEW030 OVC050
Wind Visibility Clouds
290° at 3 knots Greater than 6 miles
  • Few at 3,000' AGL
  • Overcast at 5,000' AGL
From Jan-19 @ 02:00 to Jan-19 @ 12:00
FM190200 31003KT P6SM SCT250
Wind Visibility Clouds
310° at 3 knots Greater than 6 miles
  • Scattered at 25,000' AGL
From Jan-19 @ 12:00 to Jan-20 @ 00:00
FM191200 33005KT P6SM OVC120
Wind Visibility Clouds
330° at 5 knots Greater than 6 miles
  • Overcast at 12,000' AGL
KCON 182320Z 1900/1924 29003KT P6SM FEW030 OVC050 FM190200 31003KT P6SM SCT250 FM191200 33005KT P6SM OVC120
Issued Jan-18 @ 23:20 UTC
(3 hours ago)
Valid From Jan-19 @ 00:00 UTC
(2 hours ago)
Valid To Jan-20 @ 00:00 UTC
(in 22 hours)
Jan-19 @ 00:00 - Jan-19 @ 02:00
Wind Visibility
290° at 3 knots Greater than 6 miles
Clouds
  • Few at 3,000' AGL
  • Overcast at 5,000' AGL
From Jan-19 @ 02:00 - Jan-19 @ 12:00
Wind Visibility
310° at 3 knots Greater than 6 miles
Clouds
  • Scattered at 25,000' AGL
From Jan-19 @ 12:00 - Jan-20 @ 00:00
Wind Visibility
330° at 5 knots Greater than 6 miles
Clouds
  • Overcast at 12,000' AGL